sensor_id;sensor_type;location;lat;lon;timestamp;noise_LAeq;noise_LA_min;noise_LA_max;noise_LA01;noise_LA95
37223;Laerm;28026;48.562;14.440;2023-10-09T00:01:08;37.63;30.89;50.03;;
37223;Laerm;28026;48.562;14.440;2023-10-09T00:03:47;38.70;32.35;43.54;;
37223;Laerm;28026;48.562;14.440;2023-10-09T00:06:24;37.30;30.89;42.65;;
37223;Laerm;28026;48.562;14.440;2023-10-09T00:09:07;37.22;31.68;40.62;;
37223;Laerm;28026;48.562;14.440;2023-10-09T00:12:01;37.61;32.35;40.62;;
37223;Laerm;28026;48.562;14.440;2023-10-09T00:14:32;38.14;30.89;48.77;;
37223;Laerm;28026;48.562;14.440;2023-10-09T00:17:09;41.10;34.31;45.51;;
37223;Laerm;28026;48.562;14.440;2023-10-09T00:19:46;37.63;31.68;41.82;;
37223;Laerm;28026;48.562;14.440;2023-10-09T00:22:21;37.36;30.89;40.71;;
37223;Laerm;28026;48.562;14.440;2023-10-09T00:24:58;38.70;33.44;43.34;;
37223;Laerm;28026;48.562;14.440;2023-10-09T00:27:52;37.28;31.68;47.72;;
37223;Laerm;28026;48.562;14.440;2023-10-09T00:30:23;37.16;30.89;39.70;;
37223;Laerm;28026;48.562;14.440;2023-10-09T00:33:00;37.27;31.68;39.70;;
37223;Laerm;28026;48.562;14.440;2023-10-09T00:35:38;37.84;32.35;41.38;;
37223;Laerm;28026;48.562;14.440;2023-10-09T00:38:15;38.36;32.35;47.67;;
37223;Laerm;28026;48.562;14.440;2023-10-09T00:40:52;41.27;33.90;53.54;;
37223;Laerm;28026;48.562;14.440;2023-10-09T00:43:27;38.12;31.68;42.30;;
37223;Laerm;28026;48.562;14.440;2023-10-09T00:46:02;38.77;30.89;48.53;;
37223;Laerm;28026;48.562;14.440;2023-10-09T00:49:00;37.50;32.93;42.35;;
37223;Laerm;28026;48.562;14.440;2023-10-09T00:51:33;37.49;32.35;41.82;;
37223;Laerm;28026;48.562;14.440;2023-10-09T00:54:08;37.48;32.35;42.29;;
37223;Laerm;28026;48.562;14.440;2023-10-09T00:56:45;37.26;31.68;39.92;;
37223;Laerm;28026;48.562;14.440;2023-10-09T00:59:25;37.28;31.68;40.80;;
37223;Laerm;28026;48.562;14.440;2023-10-09T01:01:56;37.29;29.92;41.14;;
37223;Laerm;28026;48.562;14.440;2023-10-09T01:04:27;37.21;31.68;41.61;;
37223;Laerm;28026;48.562;14.440;2023-10-09T01:07:00;37.96;30.89;50.56;;
37223;Laerm;28026;48.562;14.440;2023-10-09T01:09:51;39.05;31.68;46.80;;
37223;Laerm;28026;48.562;14.440;2023-10-09T01:12:25;41.94;35.94;46.18;;
37223;Laerm;28026;48.562;14.440;2023-10-09T01:14:59;44.12;35.04;54.48;;
37223;Laerm;28026;48.562;14.440;2023-10-09T01:17:30;38.15;33.44;44.47;;
37223;Laerm;28026;48.562;14.440;2023-10-09T01:20:07;37.45;32.35;41.53;;
37223;Laerm;28026;48.562;14.440;2023-10-09T01:22:47;37.57;32.93;41.14;;
37223;Laerm;28026;48.562;14.440;2023-10-09T01:25:21;39.14;32.93;52.47;;
37223;Laerm;28026;48.562;14.440;2023-10-09T01:27:52;37.48;32.93;50.78;;
37223;Laerm;28026;48.562;14.440;2023-10-09T01:30:23;37.47;32.93;41.30;;
37223;Laerm;28026;48.562;14.440;2023-10-09T01:32:54;37.28;31.33;40.98;;
37223;Laerm;28026;48.562;14.440;2023-10-09T01:35:28;37.14;31.68;41.06;;
37223;Laerm;28026;48.562;14.440;2023-10-09T01:38:03;37.13;32.35;47.42;;
37223;Laerm;28026;48.562;14.440;2023-10-09T01:40:41;38.48;32.93;43.24;;
37223;Laerm;28026;48.562;14.440;2023-10-09T01:43:13;38.38;32.93;42.93;;
37223;Laerm;28026;48.562;14.440;2023-10-09T01:45:49;37.29;32.35;41.46;;
37223;Laerm;28026;48.562;14.440;2023-10-09T01:48:22;37.01;32.35;41.46;;
37223;Laerm;28026;48.562;14.440;2023-10-09T01:50:55;36.96;31.68;43.90;;
37223;Laerm;28026;48.562;14.440;2023-10-09T01:53:26;37.25;32.35;42.19;;
37223;Laerm;28026;48.562;14.440;2023-10-09T01:56:10;40.21;33.44;46.66;;
37223;Laerm;28026;48.562;14.440;2023-10-09T01:58:48;42.19;34.69;51.14;;
37223;Laerm;28026;48.562;14.440;2023-10-09T02:01:21;38.29;32.93;42.76;;
37223;Laerm;28026;48.562;14.440;2023-10-09T02:03:52;37.19;32.35;42.65;;
37223;Laerm;28026;48.562;14.440;2023-10-09T02:06:23;37.24;31.68;42.29;;
37223;Laerm;28026;48.562;14.440;2023-10-09T02:08:58;37.31;32.35;43.54;;
37223;Laerm;28026;48.562;14.440;2023-10-09T02:11:30;40.92;33.90;45.48;;
37223;Laerm;28026;48.562;14.440;2023-10-09T02:14:07;45.84;33.44;62.99;;
37223;Laerm;28026;48.562;14.440;2023-10-09T02:16:50;38.05;32.35;42.85;;
37223;Laerm;28026;48.562;14.440;2023-10-09T02:19:41;39.46;32.93;46.38;;
37223;Laerm;28026;48.562;14.440;2023-10-09T02:22:14;38.71;33.44;43.90;;
37223;Laerm;28026;48.562;14.440;2023-10-09T02:24:45;40.58;34.31;45.63;;
37223;Laerm;28026;48.562;14.440;2023-10-09T02:27:19;42.52;36.45;55.37;;
37223;Laerm;28026;48.562;14.440;2023-10-09T02:30:08;40.62;30.89;46.57;;
37223;Laerm;28026;48.562;14.440;2023-10-09T02:32:46;44.56;37.32;55.11;;
37223;Laerm;28026;48.562;14.440;2023-10-09T02:35:23;40.04;33.44;46.71;;
37223;Laerm;28026;48.562;14.440;2023-10-09T02:38:09;37.91;31.68;46.73;;
37223;Laerm;28026;48.562;14.440;2023-10-09T02:40:45;40.65;33.90;57.69;;
37223;Laerm;28026;48.562;14.440;2023-10-09T02:43:49;41.59;33.90;51.10;;
37223;Laerm;28026;48.562;14.440;2023-10-09T02:46:25;42.29;35.04;51.61;;
37223;Laerm;28026;48.562;14.440;2023-10-09T02:49:02;40.17;34.31;47.57;;
37223;Laerm;28026;48.562;14.440;2023-10-09T02:51:40;45.09;37.52;58.12;;
37223;Laerm;28026;48.562;14.440;2023-10-09T02:54:23;39.09;33.44;47.93;;
37223;Laerm;28026;48.562;14.440;2023-10-09T02:56:54;41.85;32.93;46.28;;
37223;Laerm;28026;48.562;14.440;2023-10-09T02:59:37;39.86;33.44;52.80;;
37223;Laerm;28026;48.562;14.440;2023-10-09T03:02:09;40.17;33.90;56.41;;
37223;Laerm;28026;48.562;14.440;2023-10-09T03:04:41;39.32;33.90;43.54;;
37223;Laerm;28026;48.562;14.440;2023-10-09T03:07:12;38.55;32.35;43.29;;
37223;Laerm;28026;48.562;14.440;2023-10-09T03:09:44;39.20;33.44;43.58;;
37223;Laerm;28026;48.562;14.440;2023-10-09T03:12:15;39.12;35.04;50.34;;
37223;Laerm;28026;48.562;14.440;2023-10-09T03:14:49;40.83;35.66;50.08;;
37223;Laerm;28026;48.562;14.440;2023-10-09T03:17:21;39.93;35.66;47.95;;
37223;Laerm;28026;48.562;14.440;2023-10-09T03:19:53;39.16;34.69;42.65;;
37223;Laerm;28026;48.562;14.440;2023-10-09T03:22:25;39.63;36.45;42.76;;
37223;Laerm;28026;48.562;14.440;2023-10-09T03:24:56;39.60;36.20;42.71;;
37223;Laerm;28026;48.562;14.440;2023-10-09T03:27:27;40.63;36.45;49.27;;
37223;Laerm;28026;48.562;14.440;2023-10-09T03:29:57;43.02;36.69;49.26;;
37223;Laerm;28026;48.562;14.440;2023-10-09T03:32:28;44.97;41.14;56.44;;
37223;Laerm;28026;48.562;14.440;2023-10-09T03:34:59;43.30;40.33;45.69;;
37223;Laerm;28026;48.562;14.440;2023-10-09T03:37:30;41.06;35.66;46.43;;
37223;Laerm;28026;48.562;14.440;2023-10-09T03:40:06;42.16;37.52;53.85;;
37223;Laerm;28026;48.562;14.440;2023-10-09T03:42:38;43.09;35.66;54.17;;
37223;Laerm;28026;48.562;14.440;2023-10-09T03:45:12;43.28;36.45;52.68;;
37223;Laerm;28026;48.562;14.440;2023-10-09T03:47:49;44.03;39.46;57.15;;
37223;Laerm;28026;48.562;14.440;2023-10-09T03:50:19;41.66;37.32;44.65;;
37223;Laerm;28026;48.562;14.440;2023-10-09T03:53:06;41.32;36.45;45.07;;
37223;Laerm;28026;48.562;14.440;2023-10-09T03:55:38;43.51;38.52;50.10;;
37223;Laerm;28026;48.562;14.440;2023-10-09T03:58:10;43.25;38.95;49.51;;
37223;Laerm;28026;48.562;14.440;2023-10-09T04:00:45;41.03;34.31;53.70;;
37223;Laerm;28026;48.562;14.440;2023-10-09T04:03:16;46.42;37.88;62.77;;
37223;Laerm;28026;48.562;14.440;2023-10-09T04:05:46;43.92;36.91;54.77;;
37223;Laerm;28026;48.562;14.440;2023-10-09T04:08:17;40.59;36.69;45.73;;
37223;Laerm;28026;48.562;14.440;2023-10-09T04:10:51;41.26;36.45;57.51;;
37223;Laerm;28026;48.562;14.440;2023-10-09T04:13:33;40.72;36.20;54.88;;
37223;Laerm;28026;48.562;14.440;2023-10-09T04:16:15;44.78;40.03;54.90;;
37223;Laerm;28026;48.562;14.440;2023-10-09T04:19:03;42.09;36.91;54.68;;
37223;Laerm;28026;48.562;14.440;2023-10-09T04:21:37;42.18;36.91;55.22;;
37223;Laerm;28026;48.562;14.440;2023-10-09T04:24:09;42.76;37.32;53.38;;
37223;Laerm;28026;48.562;14.440;2023-10-09T04:26:44;42.64;38.37;49.45;;
37223;Laerm;28026;48.562;14.440;2023-10-09T04:29:16;41.50;37.12;45.01;;
37223;Laerm;28026;48.562;14.440;2023-10-09T04:32:09;40.61;36.20;43.63;;
37223;Laerm;28026;48.562;14.440;2023-10-09T04:34:46;41.57;35.04;45.48;;
37223;Laerm;28026;48.562;14.440;2023-10-09T04:37:26;43.46;39.58;48.36;;
37223;Laerm;28026;48.562;14.440;2023-10-09T04:40:09;41.96;37.52;45.80;;
37223;Laerm;28026;48.562;14.440;2023-10-09T04:42:45;43.49;37.88;52.74;;
37223;Laerm;28026;48.562;14.440;2023-10-09T04:45:28;44.56;39.08;57.06;;
37223;Laerm;28026;48.562;14.440;2023-10-09T04:48:15;43.73;38.87;53.85;;
37223;Laerm;28026;48.562;14.440;2023-10-09T04:51:06;42.17;37.88;63.00;;
37223;Laerm;28026;48.562;14.440;2023-10-09T04:54:05;44.76;39.34;70.32;;
37223;Laerm;28026;48.562;14.440;2023-10-09T04:56:45;44.34;38.52;57.75;;
37223;Laerm;28026;48.562;14.440;2023-10-09T04:59:33;44.90;39.34;61.44;;
37223;Laerm;28026;48.562;14.440;2023-10-09T05:02:16;43.77;40.33;54.26;;
37223;Laerm;28026;48.562;14.440;2023-10-09T05:04:50;43.16;38.95;66.18;;
37223;Laerm;28026;48.562;14.440;2023-10-09T05:07:43;42.36;38.21;48.32;;
37223;Laerm;28026;48.562;14.440;2023-10-09T05:10:25;42.44;38.37;51.52;;
37223;Laerm;28026;48.562;14.440;2023-10-09T05:12:56;42.32;38.21;45.63;;
37223;Laerm;28026;48.562;14.440;2023-10-09T05:15:30;43.15;38.21;57.11;;
37223;Laerm;28026;48.562;14.440;2023-10-09T05:18:05;43.42;39.08;51.87;;
37223;Laerm;28026;48.562;14.440;2023-10-09T05:20:40;44.00;40.03;50.52;;
37223;Laerm;28026;48.562;14.440;2023-10-09T05:23:33;42.91;38.05;53.64;;
37223;Laerm;28026;48.562;14.440;2023-10-09T05:26:15;45.61;40.23;74.82;;
37223;Laerm;28026;48.562;14.440;2023-10-09T05:29:04;43.04;39.08;52.32;;
37223;Laerm;28026;48.562;14.440;2023-10-09T05:31:51;46.27;40.71;58.91;;
37223;Laerm;28026;48.562;14.440;2023-10-09T05:34:46;43.58;39.81;59.00;;
37223;Laerm;28026;48.562;14.440;2023-10-09T05:37:33;43.50;39.21;51.39;;
37223;Laerm;28026;48.562;14.440;2023-10-09T05:40:06;44.23;39.92;50.53;;
37223;Laerm;28026;48.562;14.440;2023-10-09T05:42:46;45.21;39.46;57.05;;
37223;Laerm;28026;48.562;14.440;2023-10-09T05:45:28;43.90;40.33;52.97;;
37223;Laerm;28026;48.562;14.440;2023-10-09T05:48:17;42.06;38.67;48.26;;
37223;Laerm;28026;48.562;14.440;2023-10-09T05:50:48;42.56;38.52;50.98;;
37223;Laerm;28026;48.562;14.440;2023-10-09T05:53:57;41.73;38.05;50.37;;
37223;Laerm;28026;48.562;14.440;2023-10-09T05:56:57;43.16;38.21;64.19;;
37223;Laerm;28026;48.562;14.440;2023-10-09T05:59:51;48.88;40.23;61.90;;
37223;Laerm;28026;48.562;14.440;2023-10-09T06:02:45;42.82;38.37;61.81;;
37223;Laerm;28026;48.562;14.440;2023-10-09T06:05:34;43.34;38.95;53.93;;
37223;Laerm;28026;48.562;14.440;2023-10-09T06:08:11;41.91;37.12;56.97;;
37223;Laerm;28026;48.562;14.440;2023-10-09T06:10:43;42.37;38.21;53.12;;
37223;Laerm;28026;48.562;14.440;2023-10-09T06:13:14;43.69;38.81;63.16;;
37223;Laerm;28026;48.562;14.440;2023-10-09T06:16:08;43.11;37.70;61.13;;
37223;Laerm;28026;48.562;14.440;2023-10-09T06:19:02;44.49;38.37;55.74;;
37223;Laerm;28026;48.562;14.440;2023-10-09T06:21:39;41.50;37.52;50.07;;
37223;Laerm;28026;48.562;14.440;2023-10-09T06:24:31;41.10;37.17;55.73;;
37223;Laerm;28026;48.562;14.440;2023-10-09T06:27:12;40.62;37.12;45.17;;
37223;Laerm;28026;48.562;14.440;2023-10-09T06:29:44;41.21;36.45;60.00;;
37223;Laerm;28026;48.562;14.440;2023-10-09T06:32:19;43.34;38.52;53.20;;
37223;Laerm;28026;48.562;14.440;2023-10-09T06:35:01;41.79;37.32;61.00;;
37223;Laerm;28026;48.562;14.440;2023-10-09T06:37:50;42.93;37.52;50.14;;
37223;Laerm;28026;48.562;14.440;2023-10-09T06:40:39;43.61;38.21;60.01;;
37223;Laerm;28026;48.562;14.440;2023-10-09T06:43:20;42.22;38.05;52.92;;
37223;Laerm;28026;48.562;14.440;2023-10-09T06:45:58;42.91;37.88;49.62;;
37223;Laerm;28026;48.562;14.440;2023-10-09T06:48:49;42.50;38.81;47.26;;
37223;Laerm;28026;48.562;14.440;2023-10-09T06:51:26;42.58;38.81;47.57;;
37223;Laerm;28026;48.562;14.440;2023-10-09T06:53:57;42.82;37.70;47.54;;
37223;Laerm;28026;48.562;14.440;2023-10-09T06:56:30;43.92;39.81;54.78;;
37223;Laerm;28026;48.562;14.440;2023-10-09T06:59:05;41.17;38.21;50.52;;
37223;Laerm;28026;48.562;14.440;2023-10-09T07:01:55;40.93;36.91;49.44;;
37223;Laerm;28026;48.562;14.440;2023-10-09T07:05:05;41.45;37.12;51.80;;
37223;Laerm;28026;48.562;14.440;2023-10-09T07:07:41;41.08;37.88;50.11;;
37223;Laerm;28026;48.562;14.440;2023-10-09T07:10:22;42.19;38.05;53.03;;
37223;Laerm;28026;48.562;14.440;2023-10-09T07:13:03;41.98;38.52;52.62;;
37223;Laerm;28026;48.562;14.440;2023-10-09T07:15:34;42.65;38.21;61.82;;
37223;Laerm;28026;48.562;14.440;2023-10-09T07:18:31;43.08;38.74;55.18;;
37223;Laerm;28026;48.562;14.440;2023-10-09T07:21:20;43.34;37.88;55.50;;
37223;Laerm;28026;48.562;14.440;2023-10-09T07:23:58;41.70;37.70;46.07;;
37223;Laerm;28026;48.562;14.440;2023-10-09T07:26:44;42.21;38.81;45.45;;
37223;Laerm;28026;48.562;14.440;2023-10-09T07:29:20;42.28;38.67;47.00;;
37223;Laerm;28026;48.562;14.440;2023-10-09T07:31:54;41.50;37.88;46.73;;
37223;Laerm;28026;48.562;14.440;2023-10-09T07:34:43;40.94;37.52;50.37;;
37223;Laerm;28026;48.562;14.440;2023-10-09T07:37:29;41.09;36.91;53.91;;
37223;Laerm;28026;48.562;14.440;2023-10-09T07:40:09;40.76;36.91;52.89;;
37223;Laerm;28026;48.562;14.440;2023-10-09T07:42:40;40.64;36.69;49.80;;
37223;Laerm;28026;48.562;14.440;2023-10-09T07:45:11;47.84;37.70;72.01;;
37223;Laerm;28026;48.562;14.440;2023-10-09T07:48:03;48.31;36.56;77.92;;
37223;Laerm;28026;48.562;14.440;2023-10-09T07:50:38;39.98;35.66;43.19;;
37223;Laerm;28026;48.562;14.440;2023-10-09T07:53:11;40.96;36.20;54.33;;
37223;Laerm;28026;48.562;14.440;2023-10-09T07:56:13;42.40;37.88;65.23;;
37223;Laerm;28026;48.562;14.440;2023-10-09T07:58:51;43.62;38.21;64.82;;
37223;Laerm;28026;48.562;14.440;2023-10-09T08:01:22;43.13;36.45;65.56;;
37223;Laerm;28026;48.562;14.440;2023-10-09T08:03:53;40.95;36.45;54.77;;
37223;Laerm;28026;48.562;14.440;2023-10-09T08:06:44;41.68;37.32;58.47;;
37223;Laerm;28026;48.562;14.440;2023-10-09T08:09:15;41.20;36.91;53.24;;
37223;Laerm;28026;48.562;14.440;2023-10-09T08:11:49;40.91;35.66;55.13;;
37223;Laerm;28026;48.562;14.440;2023-10-09T08:14:41;43.16;36.69;63.43;;
37223;Laerm;28026;48.562;14.440;2023-10-09T08:17:14;43.93;37.52;63.45;;
37223;Laerm;28026;48.562;14.440;2023-10-09T08:19:58;40.76;37.12;58.91;;
37223;Laerm;28026;48.562;14.440;2023-10-09T08:22:30;41.32;36.69;52.40;;
37223;Laerm;28026;48.562;14.440;2023-10-09T08:25:01;41.92;35.66;61.23;;
37223;Laerm;28026;48.562;14.440;2023-10-09T08:27:33;40.80;36.91;45.45;;
37223;Laerm;28026;48.562;14.440;2023-10-09T08:30:08;40.53;35.04;49.08;;
37223;Laerm;28026;48.562;14.440;2023-10-09T08:32:50;40.48;36.20;48.31;;
37223;Laerm;28026;48.562;14.440;2023-10-09T08:35:37;41.29;36.56;45.83;;
37223;Laerm;28026;48.562;14.440;2023-10-09T08:38:21;41.65;36.91;50.90;;
37223;Laerm;28026;48.562;14.440;2023-10-09T08:40:55;42.55;37.32;57.51;;
37223;Laerm;28026;48.562;14.440;2023-10-09T08:43:36;40.81;35.94;56.39;;
37223;Laerm;28026;48.562;14.440;2023-10-09T08:46:08;41.18;36.91;50.03;;
37223;Laerm;28026;48.562;14.440;2023-10-09T08:48:39;41.58;36.69;53.21;;
37223;Laerm;28026;48.562;14.440;2023-10-09T08:51:10;41.83;36.69;53.47;;
37223;Laerm;28026;48.562;14.440;2023-10-09T08:53:41;40.36;35.36;55.41;;
37223;Laerm;28026;48.562;14.440;2023-10-09T08:56:20;40.09;33.44;62.53;;
37223;Laerm;28026;48.562;14.440;2023-10-09T08:58:59;40.84;33.90;66.74;;
37223;Laerm;28026;48.562;14.440;2023-10-09T09:01:29;42.16;34.69;68.68;;
37223;Laerm;28026;48.562;14.440;2023-10-09T09:04:03;41.57;32.93;63.51;;
37223;Laerm;28026;48.562;14.440;2023-10-09T09:06:38;42.77;36.69;63.95;;
37223;Laerm;28026;48.562;14.440;2023-10-09T09:09:12;41.15;34.31;51.61;;
37223;Laerm;28026;48.562;14.440;2023-10-09T09:11:46;43.01;34.69;71.36;;
37223;Laerm;28026;48.562;14.440;2023-10-09T09:14:20;42.29;35.36;56.06;;
37223;Laerm;28026;48.562;14.440;2023-10-09T09:17:07;39.56;35.04;56.75;;
37223;Laerm;28026;48.562;14.440;2023-10-09T09:19:41;46.71;33.44;75.44;;
37223;Laerm;28026;48.562;14.440;2023-10-09T09:22:14;61.47;36.20;86.47;;
37223;Laerm;28026;48.562;14.440;2023-10-09T09:24:58;51.04;37.32;78.06;;
37223;Laerm;28026;48.562;14.440;2023-10-09T09:27:47;47.34;35.94;70.29;;
37223;Laerm;28026;48.562;14.440;2023-10-09T09:30:28;52.42;36.20;81.51;;
37223;Laerm;28026;48.562;14.440;2023-10-09T09:33:24;54.40;35.66;82.93;;
37223;Laerm;28026;48.562;14.440;2023-10-09T09:36:10;54.56;37.70;83.52;;
37223;Laerm;28026;48.562;14.440;2023-10-09T09:38:44;48.73;35.66;73.51;;
37223;Laerm;28026;48.562;14.440;2023-10-09T09:41:19;52.43;36.91;84.13;;
37223;Laerm;28026;48.562;14.440;2023-10-09T09:43:58;49.56;37.88;83.68;;
37223;Laerm;28026;48.562;14.440;2023-10-09T09:46:34;52.59;36.20;77.96;;
37223;Laerm;28026;48.562;14.440;2023-10-09T09:49:06;56.78;35.36;86.68;;
37223;Laerm;28026;48.562;14.440;2023-10-09T09:51:48;54.58;37.52;81.37;;
37223;Laerm;28026;48.562;14.440;2023-10-09T09:54:19;54.33;36.69;82.56;;
37223;Laerm;28026;48.562;14.440;2023-10-09T09:56:55;48.14;36.20;72.33;;
37223;Laerm;28026;48.562;14.440;2023-10-09T09:59:31;56.08;35.36;79.83;;
37223;Laerm;28026;48.562;14.440;2023-10-09T10:02:10;45.65;37.52;69.59;;
37223;Laerm;28026;48.562;14.440;2023-10-09T10:04:55;43.05;35.36;67.04;;
37223;Laerm;28026;48.562;14.440;2023-10-09T10:07:31;51.40;33.44;78.18;;
37223;Laerm;28026;48.562;14.440;2023-10-09T10:10:42;45.39;35.36;71.09;;
37223;Laerm;28026;48.562;14.440;2023-10-09T10:16:19;49.66;37.70;78.11;;
37223;Laerm;28026;48.562;14.440;2023-10-09T10:19:00;52.55;36.69;76.57;;
37223;Laerm;28026;48.562;14.440;2023-10-09T10:21:38;50.91;35.66;81.18;;
37223;Laerm;28026;48.562;14.440;2023-10-09T10:35:25;41.74;37.32;55.58;;
37223;Laerm;28026;48.562;14.440;2023-10-09T10:38:30;48.30;36.69;63.64;;
37223;Laerm;28026;48.562;14.440;2023-10-09T10:41:19;43.38;36.91;61.55;;
37223;Laerm;28026;48.562;14.440;2023-10-09T10:43:53;48.05;36.45;75.85;;
37223;Laerm;28026;48.562;14.440;2023-10-09T10:46:24;45.58;35.66;73.11;;
37223;Laerm;28026;48.562;14.440;2023-10-09T10:49:01;47.33;38.95;65.70;;
37223;Laerm;28026;48.562;14.440;2023-10-09T10:51:51;44.71;36.98;57.00;;
37223;Laerm;28026;48.562;14.440;2023-10-09T10:54:49;42.65;38.05;49.98;;
37223;Laerm;28026;48.562;14.440;2023-10-09T10:57:43;44.49;39.58;70.11;;
37223;Laerm;28026;48.562;14.440;2023-10-09T11:00:34;50.30;39.08;75.09;;
37223;Laerm;28026;48.562;14.440;2023-10-09T11:03:26;48.93;40.53;62.27;;
37223;Laerm;28026;48.562;14.440;2023-10-09T11:06:30;48.91;39.21;69.78;;
37223;Laerm;28026;48.562;14.440;2023-10-09T11:09:09;46.22;36.45;60.15;;
37223;Laerm;28026;48.562;14.440;2023-10-09T11:11:52;42.54;33.44;60.77;;
37223;Laerm;28026;48.562;14.440;2023-10-09T11:14:50;42.10;33.90;63.80;;
37223;Laerm;28026;48.562;14.440;2023-10-09T11:17:36;43.02;36.20;70.61;;
37223;Laerm;28026;48.562;14.440;2023-10-09T11:20:09;43.21;35.66;66.57;;
37223;Laerm;28026;48.562;14.440;2023-10-09T11:23:01;40.35;35.94;51.62;;
37223;Laerm;28026;48.562;14.440;2023-10-09T11:25:48;41.46;35.04;56.27;;
37223;Laerm;28026;48.562;14.440;2023-10-09T11:28:23;43.49;38.67;57.67;;
37223;Laerm;28026;48.562;14.440;2023-10-09T11:31:13;52.20;40.80;85.95;;
37223;Laerm;28026;48.562;14.440;2023-10-09T11:33:51;47.32;43.37;61.35;;
37223;Laerm;28026;48.562;14.440;2023-10-09T11:36:23;48.45;43.19;63.76;;
37223;Laerm;28026;48.562;14.440;2023-10-09T11:39:03;46.20;40.33;68.22;;
37223;Laerm;28026;48.562;14.440;2023-10-09T11:42:01;43.74;39.70;54.18;;
37223;Laerm;28026;48.562;14.440;2023-10-09T11:44:43;44.44;37.12;72.12;;
37223;Laerm;28026;48.562;14.440;2023-10-09T11:47:34;42.65;36.45;59.04;;
37223;Laerm;28026;48.562;14.440;2023-10-09T11:50:06;53.02;36.45;80.40;;
37223;Laerm;28026;48.562;14.440;2023-10-09T11:52:59;42.36;35.94;65.96;;
37223;Laerm;28026;48.562;14.440;2023-10-09T11:55:49;41.74;35.31;62.77;;
37223;Laerm;28026;48.562;14.440;2023-10-09T11:58:22;40.39;35.66;55.20;;
37223;Laerm;28026;48.562;14.440;2023-10-09T12:00:55;40.00;34.69;58.31;;
37223;Laerm;28026;48.562;14.440;2023-10-09T12:03:35;39.07;33.90;55.70;;
37223;Laerm;28026;48.562;14.440;2023-10-09T12:06:06;40.18;35.86;55.68;;
37223;Laerm;28026;48.562;14.440;2023-10-09T12:08:42;42.90;35.66;52.91;;
37223;Laerm;28026;48.562;14.440;2023-10-09T12:11:17;40.34;35.04;52.39;;
37223;Laerm;28026;48.562;14.440;2023-10-09T12:13:53;42.15;35.94;59.80;;
37223;Laerm;28026;48.562;14.440;2023-10-09T12:16:27;41.66;35.66;66.55;;
37223;Laerm;28026;48.562;14.440;2023-10-09T12:18:59;40.76;34.31;47.52;;
37223;Laerm;28026;48.562;14.440;2023-10-09T12:21:30;41.84;35.66;60.00;;
37223;Laerm;28026;48.562;14.440;2023-10-09T12:24:01;42.43;36.45;58.51;;
37223;Laerm;28026;48.562;14.440;2023-10-09T12:26:32;41.60;34.69;53.13;;
37223;Laerm;28026;48.562;14.440;2023-10-09T12:29:05;41.44;35.94;45.42;;
37223;Laerm;28026;48.562;14.440;2023-10-09T12:31:41;40.73;36.45;44.97;;
37223;Laerm;28026;48.562;14.440;2023-10-09T12:34:15;40.79;35.94;60.63;;
37223;Laerm;28026;48.562;14.440;2023-10-09T12:36:47;41.54;36.91;52.00;;
37223;Laerm;28026;48.562;14.440;2023-10-09T12:39:24;41.92;36.91;66.54;;
37223;Laerm;28026;48.562;14.440;2023-10-09T12:41:54;44.02;36.56;68.41;;
37223;Laerm;28026;48.562;14.440;2023-10-09T12:44:28;47.59;34.69;79.45;;
37223;Laerm;28026;48.562;14.440;2023-10-09T12:46:59;50.17;36.45;75.24;;
37223;Laerm;28026;48.562;14.440;2023-10-09T12:49:35;49.34;36.69;77.18;;
37223;Laerm;28026;48.562;14.440;2023-10-09T12:52:09;41.81;35.94;61.48;;
37223;Laerm;28026;48.562;14.440;2023-10-09T12:54:47;41.60;36.69;50.93;;
37223;Laerm;28026;48.562;14.440;2023-10-09T12:57:17;42.96;38.37;50.08;;
37223;Laerm;28026;48.562;14.440;2023-10-09T12:59:49;43.18;39.92;56.17;;
37223;Laerm;28026;48.562;14.440;2023-10-09T13:02:21;44.07;39.08;55.15;;
37223;Laerm;28026;48.562;14.440;2023-10-09T13:05:01;42.31;38.21;54.03;;
37223;Laerm;28026;48.562;14.440;2023-10-09T13:07:35;42.65;38.05;53.71;;
37223;Laerm;28026;48.562;14.440;2023-10-09T13:10:06;41.72;38.05;49.59;;
37223;Laerm;28026;48.562;14.440;2023-10-09T13:12:42;45.10;39.34;57.70;;
37223;Laerm;28026;48.562;14.440;2023-10-09T13:15:13;43.71;39.58;53.33;;
37223;Laerm;28026;48.562;14.440;2023-10-09T13:17:44;44.87;38.81;57.70;;
37223;Laerm;28026;48.562;14.440;2023-10-09T13:20:15;43.20;38.52;54.67;;
37223;Laerm;28026;48.562;14.440;2023-10-09T13:22:46;42.72;36.20;56.92;;
37223;Laerm;28026;48.562;14.440;2023-10-09T13:25:19;43.39;36.20;67.25;;
37223;Laerm;28026;48.562;14.440;2023-10-09T13:27:55;42.36;37.12;57.16;;
37223;Laerm;28026;48.562;14.440;2023-10-09T13:30:26;42.97;35.94;58.91;;
37223;Laerm;28026;48.562;14.440;2023-10-09T13:32:57;40.65;34.69;55.52;;
37223;Laerm;28026;48.562;14.440;2023-10-09T13:35:31;40.12;35.36;56.36;;
37223;Laerm;28026;48.562;14.440;2023-10-09T13:38:08;40.64;35.66;49.02;;
37223;Laerm;28026;48.562;14.440;2023-10-09T13:40:40;42.90;36.91;59.31;;
37223;Laerm;28026;48.562;14.440;2023-10-09T13:43:11;45.93;37.32;68.18;;
37223;Laerm;28026;48.562;14.440;2023-10-09T13:45:47;42.73;36.91;64.40;;
37223;Laerm;28026;48.562;14.440;2023-10-09T13:48:20;49.36;36.20;77.98;;
37223;Laerm;28026;48.562;14.440;2023-10-09T13:50:58;47.93;36.69;71.79;;
37223;Laerm;28026;48.562;14.440;2023-10-09T13:53:29;42.66;36.69;51.61;;
37223;Laerm;28026;48.562;14.440;2023-10-09T13:56:01;50.98;36.91;77.48;;
37223;Laerm;28026;48.562;14.440;2023-10-09T13:58:33;40.26;36.20;52.92;;
37223;Laerm;28026;48.562;14.440;2023-10-09T14:01:05;43.61;37.32;65.58;;
37223;Laerm;28026;48.562;14.440;2023-10-09T14:03:38;48.88;38.21;74.41;;
37223;Laerm;28026;48.562;14.440;2023-10-09T14:06:09;41.15;37.52;49.35;;
37223;Laerm;28026;48.562;14.440;2023-10-09T14:08:43;41.84;34.31;62.88;;
37223;Laerm;28026;48.562;14.440;2023-10-09T14:11:15;47.02;36.69;70.61;;
37223;Laerm;28026;48.562;14.440;2023-10-09T14:13:46;42.05;38.21;46.78;;
37223;Laerm;28026;48.562;14.440;2023-10-09T14:16:19;46.93;35.94;71.40;;
37223;Laerm;28026;48.562;14.440;2023-10-09T14:18:58;44.24;35.36;73.18;;
37223;Laerm;28026;48.562;14.440;2023-10-09T14:21:37;42.42;38.21;59.28;;
37223;Laerm;28026;48.562;14.440;2023-10-09T14:24:08;42.68;37.88;49.91;;
37223;Laerm;28026;48.562;14.440;2023-10-09T14:26:45;41.51;37.53;48.02;;
37223;Laerm;28026;48.562;14.440;2023-10-09T14:29:17;42.21;37.52;50.48;;
37223;Laerm;28026;48.562;14.440;2023-10-09T14:31:48;41.70;37.52;55.15;;
37223;Laerm;28026;48.562;14.440;2023-10-09T14:34:30;41.88;37.70;50.17;;
37223;Laerm;28026;48.562;14.440;2023-10-09T14:37:06;42.63;37.32;60.54;;
37223;Laerm;28026;48.562;14.440;2023-10-09T14:39:39;41.10;36.91;49.30;;
37223;Laerm;28026;48.562;14.440;2023-10-09T14:42:10;49.92;38.05;74.19;;
37223;Laerm;28026;48.562;14.440;2023-10-09T14:44:41;59.24;37.70;80.33;;
37223;Laerm;28026;48.562;14.440;2023-10-09T14:47:12;51.44;38.67;80.09;;